createdAt,value
2018-07-22T00:00:52.676Z,38.32
2018-07-22T00:03:19.314Z,38.34
2018-07-22T00:05:45.957Z,38.24
2018-07-22T00:08:12.590Z,38.25
2018-07-22T00:10:39.230Z,38.26
2018-07-22T00:13:05.875Z,38.23
2018-07-22T00:15:32.503Z,38.26
2018-07-22T00:17:59.144Z,38.35
2018-07-22T00:20:25.829Z,38.34
2018-07-22T00:22:52.517Z,38.32
2018-07-22T00:25:19.156Z,38.31
2018-07-22T00:27:47.300Z,38.29
2018-07-22T00:30:12.539Z,38.27
2018-07-22T00:32:42.502Z,38.33
2018-07-22T00:35:09.188Z,38.47
2018-07-22T00:37:35.826Z,38.41
2018-07-22T00:40:02.473Z,38.40
2018-07-22T00:42:29.110Z,38.38
2018-07-22T00:44:55.759Z,38.43
2018-07-22T00:47:22.411Z,38.46
2018-07-22T00:49:49.054Z,38.59
2018-07-22T00:52:15.732Z,38.62
2018-07-22T00:54:42.380Z,38.57
2018-07-22T00:57:09.013Z,38.56
2018-07-22T00:59:35.666Z,38.60
2018-07-22T01:02:02.306Z,38.57
2018-07-22T01:04:28.940Z,38.52
2018-07-22T01:06:55.619Z,38.47
2018-07-22T01:09:22.250Z,38.73
2018-07-22T01:11:48.918Z,38.74
2018-07-22T01:14:15.552Z,38.69
2018-07-22T01:16:42.184Z,38.68
2018-07-22T01:19:08.874Z,38.70
2018-07-22T01:21:35.522Z,38.70
2018-07-22T01:24:02.166Z,38.68
2018-07-22T01:26:28.816Z,38.81
2018-07-22T01:28:55.468Z,38.98
2018-07-22T01:31:22.157Z,38.90
2018-07-22T01:33:48.794Z,38.88
2018-07-22T01:36:15.476Z,38.84
2018-07-22T01:38:42.101Z,38.86
2018-07-22T01:41:08.742Z,38.82
2018-07-22T01:43:35.377Z,38.83
2018-07-22T01:46:02.021Z,38.92
2018-07-22T01:48:28.657Z,39.02
2018-07-22T01:50:55.294Z,39.07
2018-07-22T01:53:21.984Z,39.03
2018-07-22T01:55:48.622Z,39.05
2018-07-22T01:58:15.298Z,39.00
2018-07-22T02:00:42.037Z,38.97
2018-07-22T02:03:08.676Z,38.97
2018-07-22T02:05:35.326Z,38.94
2018-07-22T02:08:01.978Z,39.04
2018-07-22T02:10:28.650Z,39.20
2018-07-22T02:12:55.279Z,39.12
2018-07-22T02:15:21.920Z,39.18
2018-07-22T02:17:48.564Z,39.20
2018-07-22T02:20:15.204Z,39.15
2018-07-22T02:22:41.889Z,39.16
2018-07-22T02:25:08.523Z,39.16
2018-07-22T02:27:35.167Z,39.21
2018-07-22T02:30:01.827Z,39.21
2018-07-22T02:32:28.468Z,39.09
2018-07-22T02:34:55.100Z,39.34
2018-07-22T02:37:21.726Z,39.37
2018-07-22T02:39:48.421Z,39.34
2018-07-22T02:42:15.055Z,39.29
2018-07-22T02:44:41.694Z,39.32
2018-07-22T02:47:08.392Z,39.33
2018-07-22T02:49:35.030Z,39.29
2018-07-22T02:52:01.685Z,39.31
2018-07-22T02:54:28.347Z,39.34
2018-07-22T02:56:54.980Z,39.35
2018-07-22T02:59:21.620Z,39.30
2018-07-22T03:01:48.297Z,39.34
2018-07-22T03:04:14.932Z,39.54
2018-07-22T03:06:41.568Z,39.50
2018-07-22T03:09:08.203Z,39.53
2018-07-22T03:11:34.841Z,39.46
2018-07-22T03:14:01.486Z,39.49
2018-07-22T03:16:28.152Z,39.43
2018-07-22T03:18:54.756Z,39.46
2018-07-22T03:21:21.421Z,39.46
2018-07-22T03:23:48.051Z,39.49
2018-07-22T03:26:14.697Z,39.53
2018-07-22T03:28:41.333Z,39.48
2018-07-22T03:31:08.011Z,39.51
2018-07-22T03:33:34.647Z,39.53
2018-07-22T03:36:01.318Z,39.51
2018-07-22T03:38:28.005Z,39.59
2018-07-22T03:40:54.640Z,39.55
2018-07-22T03:43:21.307Z,39.48
2018-07-22T03:45:48.040Z,39.46
2018-07-22T03:48:14.633Z,39.44
2018-07-22T03:50:41.273Z,39.38
2018-07-22T03:53:07.958Z,39.32
2018-07-22T03:55:34.599Z,39.37
2018-07-22T03:58:01.270Z,39.30
2018-07-22T04:00:27.906Z,39.40
2018-07-22T04:02:54.541Z,39.44
2018-07-22T04:05:21.177Z,39.46
2018-07-22T04:07:47.861Z,39.33
2018-07-22T04:10:14.490Z,39.19
2018-07-22T04:12:41.109Z,39.10
2018-07-22T04:15:07.846Z,38.99
2018-07-22T04:17:34.485Z,38.95
2018-07-22T04:20:01.125Z,38.79
2018-07-22T04:22:27.796Z,38.76
2018-07-22T04:24:54.472Z,38.71
2018-07-22T04:27:21.121Z,38.62
2018-07-22T04:29:47.758Z,38.55
2018-07-22T04:32:14.449Z,38.56
2018-07-22T04:34:41.075Z,38.56
2018-07-22T04:37:07.759Z,38.48
2018-07-22T04:39:34.398Z,38.41
2018-07-22T04:42:01.085Z,38.45
2018-07-22T04:44:27.719Z,38.34
2018-07-22T04:46:54.364Z,38.25
2018-07-22T04:49:21.003Z,37.78
2018-07-22T04:51:47.650Z,37.81
2018-07-22T04:54:14.288Z,38.15
2018-07-22T04:56:40.926Z,38.35
2018-07-22T04:59:07.606Z,38.23
2018-07-22T05:01:34.199Z,38.33
2018-07-22T05:04:00.843Z,38.35
2018-07-22T05:06:27.464Z,38.48
2018-07-22T05:08:54.164Z,38.33
2018-07-22T05:11:20.883Z,38.22
2018-07-22T05:13:47.527Z,38.11
2018-07-22T05:16:14.174Z,38.18
2018-07-22T05:18:40.813Z,37.59
2018-07-22T05:21:07.553Z,37.28
2018-07-22T05:23:34.194Z,37.41
2018-07-22T05:26:00.834Z,37.66
2018-07-22T05:28:27.515Z,37.06
2018-07-22T05:30:54.142Z,37.34
2018-07-22T05:33:20.768Z,37.21
2018-07-22T05:35:47.485Z,37.14
2018-07-22T05:38:14.097Z,36.96
2018-07-22T05:40:40.779Z,37.14
2018-07-22T05:43:07.413Z,37.04
2018-07-22T05:45:34.055Z,36.87
2018-07-22T05:48:00.738Z,36.92
2018-07-22T05:50:27.340Z,36.87
2018-07-22T05:52:53.977Z,36.65
2018-07-22T05:55:20.615Z,36.69
2018-07-22T05:57:47.289Z,36.56
2018-07-22T06:00:13.940Z,36.59
2018-07-22T06:02:40.645Z,36.55
2018-07-22T06:05:07.329Z,36.49
2018-07-22T06:07:33.960Z,36.57
2018-07-22T06:10:03.957Z,36.44
2018-07-22T06:12:30.547Z,36.41
2018-07-22T06:14:57.180Z,36.40
2018-07-22T06:17:23.817Z,36.26
2018-07-22T06:19:50.557Z,36.29
2018-07-22T06:22:17.163Z,36.28
2018-07-22T06:24:43.810Z,36.29
2018-07-22T06:27:10.442Z,36.37
2018-07-22T06:29:37.117Z,36.30
2018-07-22T06:32:03.753Z,36.45
2018-07-22T06:34:30.382Z,36.38
2018-07-22T06:36:57.038Z,36.31
2018-07-22T06:39:23.749Z,36.39
2018-07-22T06:41:50.409Z,36.44
2018-07-22T06:44:17.052Z,36.19
2018-07-22T06:46:43.754Z,36.61
2018-07-22T06:49:10.367Z,36.28
2018-07-22T06:51:37.005Z,36.51
2018-07-22T06:54:03.665Z,36.64
2018-07-22T06:56:30.326Z,36.48
2018-07-22T06:58:57.039Z,36.31
2018-07-22T07:01:23.689Z,36.38
2018-07-22T07:03:50.359Z,36.28
2018-07-22T07:06:17.033Z,36.36
2018-07-22T07:08:43.710Z,36.26
2018-07-22T07:11:10.339Z,36.29
2018-07-22T07:13:36.977Z,36.11
2018-07-22T07:16:03.630Z,36.18
2018-07-22T07:18:30.261Z,36.09
2018-07-22T07:20:56.950Z,36.13
2018-07-22T07:23:23.616Z,36.08
2018-07-22T07:25:50.271Z,36.08
2018-07-22T07:28:16.899Z,36.00
2018-07-22T07:30:43.567Z,36.02
2018-07-22T07:33:10.236Z,36.11
2018-07-22T07:35:36.919Z,36.19
2018-07-22T07:38:03.553Z,36.13
2018-07-22T07:40:30.190Z,36.20
2018-07-22T07:42:56.844Z,36.20
2018-07-22T07:45:24.822Z,36.19
2018-07-22T07:47:50.127Z,36.16
2018-07-22T07:50:16.834Z,36.23
2018-07-22T07:52:43.542Z,36.18
2018-07-22T07:55:10.183Z,36.10
2018-07-22T07:57:36.855Z,36.13
2018-07-22T08:00:03.494Z,36.07
2018-07-22T08:02:30.164Z,36.08
2018-07-22T08:04:56.813Z,36.05
2018-07-22T08:07:23.485Z,36.09
2018-07-22T08:09:50.076Z,35.98
2018-07-22T08:12:16.766Z,35.98
2018-07-22T08:14:43.395Z,35.96
2018-07-22T08:17:10.029Z,35.90
2018-07-22T08:19:36.694Z,35.91
2018-07-22T08:22:03.354Z,35.89
2018-07-22T08:24:30.002Z,35.75
2018-07-22T08:26:56.636Z,36.02
2018-07-22T08:29:23.320Z,35.96
2018-07-22T08:31:50.020Z,35.86
2018-07-22T08:34:16.652Z,35.80
2018-07-22T08:36:43.285Z,35.88
2018-07-22T08:39:09.937Z,35.90
2018-07-22T08:41:36.662Z,35.53
2018-07-22T08:44:03.248Z,35.98
2018-07-22T08:46:29.916Z,35.87
2018-07-22T08:48:56.593Z,35.93
2018-07-22T08:51:23.297Z,35.52
2018-07-22T08:53:49.898Z,35.55
2018-07-22T08:56:16.554Z,35.79
2018-07-22T08:58:43.230Z,35.76
2018-07-22T09:01:09.863Z,35.65
2018-07-22T09:03:36.504Z,35.74
2018-07-22T09:06:03.159Z,35.47
2018-07-22T09:08:29.843Z,35.64
2018-07-22T09:10:56.513Z,35.50
2018-07-22T09:13:23.188Z,35.52
2018-07-22T09:15:49.817Z,35.63
2018-07-22T09:18:16.465Z,35.58
2018-07-22T09:20:43.098Z,35.63
2018-07-22T09:23:09.767Z,35.61
2018-07-22T09:25:36.397Z,35.60
2018-07-22T09:28:03.085Z,35.55
2018-07-22T09:30:29.759Z,35.63
2018-07-22T09:32:56.396Z,35.69
2018-07-22T09:35:23.062Z,35.51
2018-07-22T09:37:49.695Z,35.57
2018-07-22T09:40:16.324Z,35.60
2018-07-22T09:42:43.018Z,35.59
2018-07-22T09:45:09.648Z,35.66
2018-07-22T09:47:36.364Z,35.58
2018-07-22T09:50:02.992Z,35.69
2018-07-22T09:52:29.666Z,35.74
2018-07-22T09:54:56.300Z,35.46
2018-07-22T09:57:22.994Z,35.57
2018-07-22T09:59:49.630Z,35.58
2018-07-22T10:02:16.264Z,35.54
2018-07-22T10:04:42.974Z,35.65
2018-07-22T10:07:09.587Z,35.51
2018-07-22T10:09:36.281Z,35.54
2018-07-22T10:12:02.919Z,35.42
2018-07-22T10:14:29.664Z,35.58
2018-07-22T10:16:56.246Z,35.53
2018-07-22T10:19:22.887Z,35.60
2018-07-22T10:21:49.525Z,35.55
2018-07-22T10:24:16.244Z,35.61
2018-07-22T10:26:42.917Z,35.62
2018-07-22T10:29:09.576Z,35.61
2018-07-22T10:31:36.224Z,35.62
2018-07-22T10:34:02.937Z,35.51
2018-07-22T10:36:29.569Z,35.60
2018-07-22T10:38:56.204Z,35.46
2018-07-22T10:41:22.876Z,35.59
2018-07-22T10:43:49.521Z,35.94
2018-07-22T10:46:16.290Z,36.39
2018-07-22T10:48:42.926Z,37.49
2018-07-22T10:51:09.636Z,37.08
2018-07-22T10:53:36.299Z,36.60
2018-07-22T10:56:02.892Z,36.62
2018-07-22T10:58:29.534Z,36.38
2018-07-22T11:00:56.186Z,36.34
2018-07-22T11:03:22.896Z,36.16
2018-07-22T11:05:49.549Z,36.27
2018-07-22T11:08:16.181Z,36.01
2018-07-22T11:10:42.812Z,36.18
2018-07-22T11:13:09.514Z,35.95
2018-07-22T11:15:36.182Z,36.10
2018-07-22T11:18:02.814Z,36.01
2018-07-22T11:20:29.494Z,36.09
2018-07-22T11:22:56.125Z,35.98
2018-07-22T11:25:22.821Z,35.93
2018-07-22T11:27:49.459Z,35.83
2018-07-22T11:30:16.092Z,35.89
2018-07-22T11:32:42.789Z,35.85
2018-07-22T11:35:09.425Z,35.74
2018-07-22T11:37:36.060Z,35.68
2018-07-22T11:40:02.750Z,35.71
2018-07-22T11:42:29.404Z,35.69
2018-07-22T11:44:56.025Z,35.65
2018-07-22T11:47:22.665Z,35.60
2018-07-22T11:49:49.363Z,35.51
2018-07-22T11:52:15.992Z,35.58
2018-07-22T11:54:42.648Z,35.49
2018-07-22T11:57:09.333Z,35.68
2018-07-22T11:59:36.022Z,35.56
2018-07-22T12:02:02.702Z,35.75
2018-07-22T12:04:29.345Z,35.74
2018-07-22T12:06:55.977Z,35.77
2018-07-22T12:09:22.686Z,35.61
2018-07-22T12:11:49.335Z,35.79
2018-07-22T12:14:15.981Z,35.72
2018-07-22T12:16:42.611Z,35.74
2018-07-22T12:19:09.249Z,35.73
2018-07-22T12:21:35.897Z,35.75
2018-07-22T12:24:02.538Z,35.76
2018-07-22T12:26:29.177Z,35.64
2018-07-22T12:28:55.830Z,35.76
2018-07-22T12:31:22.467Z,35.76
2018-07-22T12:33:49.104Z,35.74
2018-07-22T12:36:15.749Z,35.53
2018-07-22T12:38:42.399Z,35.64
2018-07-22T12:41:09.038Z,35.64
2018-07-22T12:43:35.783Z,35.57
2018-07-22T12:46:02.419Z,35.56
2018-07-22T12:48:29.057Z,35.67
2018-07-22T12:50:55.682Z,35.61
2018-07-22T12:53:22.329Z,35.59
2018-07-22T12:55:48.965Z,35.66
2018-07-22T12:58:15.603Z,35.59
2018-07-22T13:00:42.245Z,35.63
2018-07-22T13:03:08.876Z,35.44
2018-07-22T13:05:35.509Z,35.68
2018-07-22T13:08:02.152Z,35.43
2018-07-22T13:10:28.813Z,35.74
2018-07-22T13:12:55.438Z,35.74
2018-07-22T13:15:22.077Z,35.63
2018-07-22T13:17:48.705Z,35.82
2018-07-22T13:20:15.345Z,35.86
2018-07-22T13:22:41.986Z,35.69
2018-07-22T13:25:08.634Z,35.61
2018-07-22T13:27:35.328Z,35.82
2018-07-22T13:30:01.902Z,35.69
2018-07-22T13:32:28.592Z,35.99
2018-07-22T13:34:55.229Z,35.86
2018-07-22T13:37:21.870Z,35.76
2018-07-22T13:39:48.525Z,35.78
2018-07-22T13:42:15.173Z,35.70
2018-07-22T13:44:41.811Z,35.81
2018-07-22T13:47:08.438Z,35.87
2018-07-22T13:49:35.098Z,35.94
2018-07-22T13:52:01.733Z,35.87
2018-07-22T13:54:28.388Z,35.86
2018-07-22T13:56:55.014Z,35.84
2018-07-22T13:59:21.655Z,35.96
2018-07-22T14:01:48.285Z,35.84
2018-07-22T14:04:15.005Z,35.85
2018-07-22T14:06:41.655Z,35.93
2018-07-22T14:09:08.290Z,35.89
2018-07-22T14:11:34.940Z,35.87
2018-07-22T14:14:01.581Z,35.95
2018-07-22T14:16:28.211Z,35.88
2018-07-22T14:18:56.986Z,35.80
2018-07-22T14:21:21.491Z,35.95
2018-07-22T14:23:48.130Z,35.94
2018-07-22T14:26:14.765Z,36.00
2018-07-22T14:28:41.403Z,35.80
2018-07-22T14:31:08.041Z,35.78
2018-07-22T14:33:34.682Z,35.80
2018-07-22T14:36:01.318Z,35.86
2018-07-22T14:38:27.952Z,35.88
2018-07-22T14:40:54.710Z,35.95
2018-07-22T14:43:21.260Z,35.92
2018-07-22T14:45:47.900Z,35.92
2018-07-22T14:48:14.597Z,35.93
2018-07-22T14:50:41.245Z,35.77
2018-07-22T14:53:07.874Z,35.80
2018-07-22T14:55:34.522Z,35.79
2018-07-22T14:58:03.746Z,35.81
2018-07-22T15:00:30.384Z,35.80
2018-07-22T15:02:57.025Z,35.85
2018-07-22T15:05:23.658Z,35.90
2018-07-22T15:07:50.296Z,35.75
2018-07-22T15:10:16.946Z,35.73
2018-07-22T15:12:43.577Z,35.95
2018-07-22T15:15:10.219Z,35.75
2018-07-22T15:17:36.891Z,35.65
2018-07-22T15:20:03.513Z,35.85
2018-07-22T15:22:30.184Z,35.67
2018-07-22T15:24:56.793Z,35.66
2018-07-22T15:27:23.430Z,35.87
2018-07-22T15:29:50.082Z,35.83
2018-07-22T15:32:16.716Z,35.82
2018-07-22T15:34:43.368Z,35.79
2018-07-22T15:37:10.028Z,35.67
2018-07-22T15:39:36.655Z,35.56
2018-07-22T15:42:03.323Z,35.77
2018-07-22T15:44:29.929Z,35.81
2018-07-22T15:46:56.665Z,35.63
2018-07-22T15:49:23.294Z,35.61
2018-07-22T15:51:49.957Z,35.58
2018-07-22T15:54:16.590Z,35.59
2018-07-22T15:56:43.268Z,35.62
2018-07-22T15:59:09.870Z,35.81
2018-07-22T16:01:36.585Z,35.55
2018-07-22T16:04:03.170Z,35.57
2018-07-22T16:06:29.857Z,35.64
2018-07-22T16:08:56.495Z,35.61
2018-07-22T16:11:23.135Z,35.46
2018-07-22T16:13:49.784Z,35.67
2018-07-22T16:16:16.521Z,35.57
2018-07-22T16:18:43.117Z,35.60
2018-07-22T16:21:09.765Z,35.68
2018-07-22T16:23:37.509Z,35.52
2018-07-22T16:26:04.151Z,35.57
2018-07-22T16:28:30.787Z,35.78
2018-07-22T16:30:57.416Z,35.68
2018-07-22T16:33:24.060Z,35.62
2018-07-22T16:35:50.694Z,35.86
2018-07-22T16:38:17.361Z,35.83
2018-07-22T16:40:43.987Z,35.60
2018-07-22T16:43:10.621Z,35.70
2018-07-22T16:45:37.256Z,35.69
2018-07-22T16:48:03.897Z,35.91
2018-07-22T16:50:30.543Z,35.93
2018-07-22T16:52:57.168Z,36.50
2018-07-22T16:55:23.807Z,36.84
2018-07-22T16:57:50.474Z,37.05
2018-07-22T17:00:17.115Z,37.06
2018-07-22T17:02:43.759Z,37.35
2018-07-22T17:05:10.400Z,37.60
2018-07-22T17:07:37.037Z,37.37
2018-07-22T17:10:03.686Z,37.25
2018-07-22T17:12:30.329Z,37.12
2018-07-22T17:14:56.965Z,37.23
2018-07-22T17:17:23.616Z,37.50
2018-07-22T17:19:50.257Z,37.31
2018-07-22T17:22:16.894Z,37.12
2018-07-22T17:24:43.537Z,37.09
2018-07-22T17:27:10.172Z,37.96
2018-07-22T17:29:36.810Z,38.76
2018-07-22T17:32:03.504Z,38.56
2018-07-22T17:34:30.157Z,38.50
2018-07-22T17:36:56.789Z,38.32
2018-07-22T17:39:23.467Z,38.30
2018-07-22T17:41:50.102Z,38.39
2018-07-22T17:44:16.771Z,38.41
2018-07-22T17:46:43.409Z,38.47
2018-07-22T17:49:10.041Z,38.54
2018-07-22T17:51:36.722Z,38.46
2018-07-22T17:54:03.403Z,38.40
2018-07-22T17:56:30.007Z,38.38
2018-07-22T17:58:56.644Z,39.30
2018-07-22T18:01:23.317Z,39.57
2018-07-22T18:03:49.955Z,39.31
2018-07-22T18:06:16.597Z,39.22
2018-07-22T18:08:43.234Z,39.18
2018-07-22T18:11:09.862Z,39.13
2018-07-22T18:13:36.491Z,39.26
2018-07-22T18:16:03.144Z,39.16
2018-07-22T18:18:29.833Z,39.10
2018-07-22T18:20:56.409Z,39.17
2018-07-22T18:23:23.066Z,39.99
2018-07-22T18:25:49.710Z,40.07
2018-07-22T18:28:16.368Z,39.87
2018-07-22T18:30:42.993Z,39.50
2018-07-22T18:33:09.701Z,39.37
2018-07-22T18:35:36.329Z,39.74
2018-07-22T18:38:02.964Z,39.50
2018-07-22T18:40:29.614Z,39.69
2018-07-22T18:42:56.260Z,39.69
2018-07-22T18:45:22.908Z,39.82
2018-07-22T18:47:49.539Z,40.40
2018-07-22T18:50:16.282Z,40.67
2018-07-22T18:52:42.920Z,41.38
2018-07-22T18:55:09.572Z,41.21
2018-07-22T18:57:36.261Z,41.02
2018-07-22T19:00:02.905Z,40.87
2018-07-22T19:02:29.553Z,40.63
2018-07-22T19:04:56.187Z,40.72
2018-07-22T19:07:22.842Z,40.66
2018-07-22T19:09:49.481Z,40.35
2018-07-22T19:12:16.120Z,40.44
2018-07-22T19:14:42.795Z,40.38
2018-07-22T19:17:09.425Z,40.58
2018-07-22T19:19:36.123Z,40.50
2018-07-22T19:22:02.754Z,40.42
2018-07-22T19:24:29.435Z,40.64
2018-07-22T19:26:56.088Z,40.60
2018-07-22T19:29:22.723Z,40.31
2018-07-22T19:31:49.426Z,40.36
2018-07-22T19:34:16.101Z,40.46
2018-07-22T19:36:42.710Z,40.39
2018-07-22T19:39:09.401Z,40.44
2018-07-22T19:41:36.044Z,40.48
2018-07-22T19:44:02.677Z,40.43
2018-07-22T19:46:29.332Z,40.57
2018-07-22T19:48:55.969Z,40.79
2018-07-22T19:51:22.644Z,40.59
2018-07-22T19:53:49.289Z,40.67
2018-07-22T19:56:15.981Z,40.73
2018-07-22T19:58:42.667Z,40.66
2018-07-22T20:01:09.317Z,40.54
2018-07-22T20:03:36.039Z,40.58
2018-07-22T20:06:02.660Z,40.50
2018-07-22T20:08:29.346Z,40.55
2018-07-22T20:10:55.983Z,40.18
2018-07-22T20:13:22.627Z,41.18
2018-07-22T20:15:49.332Z,41.27
2018-07-22T20:18:15.977Z,41.36
2018-07-22T20:20:42.606Z,41.10
2018-07-22T20:23:09.261Z,41.03
2018-07-22T20:25:35.910Z,40.99
2018-07-22T20:28:02.581Z,40.80
2018-07-22T20:30:29.184Z,40.74
2018-07-22T20:32:55.821Z,40.77
2018-07-22T20:35:22.473Z,40.86
2018-07-22T20:37:49.139Z,40.89
2018-07-22T20:40:15.794Z,40.80
2018-07-22T20:42:42.442Z,40.89
2018-07-22T20:45:09.142Z,40.91
2018-07-22T20:47:35.794Z,41.03
2018-07-22T20:50:02.403Z,40.85
2018-07-22T20:52:29.053Z,40.89
2018-07-22T20:54:55.744Z,40.94
2018-07-22T20:57:22.391Z,40.84
2018-07-22T20:59:49.027Z,40.98
2018-07-22T21:02:15.678Z,41.12
2018-07-22T21:04:42.331Z,40.99
2018-07-22T21:07:08.967Z,40.95
2018-07-22T21:09:35.626Z,40.96
2018-07-22T21:12:02.303Z,40.94
2018-07-22T21:14:28.926Z,41.06
2018-07-22T21:16:55.563Z,41.21
2018-07-22T21:19:22.211Z,41.14
2018-07-22T21:21:48.882Z,41.03
2018-07-22T21:24:15.594Z,40.89
2018-07-22T21:26:42.291Z,41.00
2018-07-22T21:29:08.898Z,40.96
2018-07-22T21:31:35.550Z,40.90
2018-07-22T21:34:02.172Z,40.93
2018-07-22T21:36:28.867Z,41.16
2018-07-22T21:38:55.529Z,41.28
2018-07-22T21:41:22.160Z,41.02
2018-07-22T21:43:48.825Z,41.14
2018-07-22T21:46:15.491Z,41.09
2018-07-22T21:48:42.161Z,41.08
2018-07-22T21:51:08.801Z,41.09
2018-07-22T21:53:35.442Z,41.31
2018-07-22T21:56:02.077Z,41.29
2018-07-22T21:58:28.762Z,41.32
2018-07-22T22:00:55.405Z,41.26
2018-07-22T22:03:22.056Z,41.27
2018-07-22T22:05:48.694Z,41.22
2018-07-22T22:08:18.102Z,41.16
2018-07-22T22:10:44.795Z,41.28
2018-07-22T22:13:11.469Z,41.44
2018-07-22T22:15:38.125Z,41.31
2018-07-22T22:18:04.810Z,41.39
2018-07-22T22:20:31.439Z,41.30
2018-07-22T22:22:58.076Z,41.26
2018-07-22T22:25:24.723Z,41.28
2018-07-22T22:27:51.444Z,41.31
2018-07-22T22:30:18.045Z,41.50
2018-07-22T22:32:44.737Z,41.51
2018-07-22T22:35:11.418Z,41.50
2018-07-22T22:37:38.056Z,41.49
2018-07-22T22:40:04.695Z,41.37
2018-07-22T22:42:31.342Z,41.45
2018-07-22T22:44:58.017Z,41.53
2018-07-22T22:47:24.652Z,41.62
2018-07-22T22:49:51.276Z,41.60
2018-07-22T22:52:17.917Z,41.49
2018-07-22T22:54:44.553Z,41.49
2018-07-22T22:57:11.220Z,41.43
2018-07-22T22:59:37.864Z,41.52
2018-07-22T23:02:04.541Z,41.57
2018-07-22T23:04:31.179Z,41.41
2018-07-22T23:06:57.861Z,41.74
2018-07-22T23:09:24.512Z,41.75
2018-07-22T23:11:51.135Z,41.74
2018-07-22T23:14:17.772Z,41.69
2018-07-22T23:16:44.399Z,41.70
2018-07-22T23:19:11.076Z,41.70
2018-07-22T23:21:37.705Z,41.69
2018-07-22T23:24:04.337Z,41.71
2018-07-22T23:26:30.980Z,41.64
2018-07-22T23:28:57.617Z,41.79
2018-07-22T23:31:25.642Z,41.88
2018-07-22T23:33:50.960Z,41.92
2018-07-22T23:36:17.596Z,41.86
2018-07-22T23:38:44.236Z,41.81
2018-07-22T23:41:10.875Z,41.84
2018-07-22T23:43:37.509Z,41.78
2018-07-22T23:46:04.185Z,41.81
2018-07-22T23:48:30.934Z,41.89
2018-07-22T23:50:57.533Z,41.94
2018-07-22T23:53:24.156Z,41.94
2018-07-22T23:55:50.858Z,41.96
2018-07-22T23:58:17.496Z,41.97
